Time;durP1;ratioP1;P1;durP2;ratioP2;P2;SDS_P1;SDS_P2;PMS_P1;PMS_P2;Temp;Humidity;BMP_temperature;BMP_pressure;BME280_temperature;BME280_humidity;BME280_pressure;Samples;Min_cycle;Max_cycle;Signal;HPM_P1;HPM_P2
2022/07/04 00:01:57;;;;;;;6.80;6.20;;;;;;;15.17;100.00;101675.41;4973146;28;20466;-46
2022/07/04 00:04:25;;;;;;;11.40;8.60;;;;;;;15.11;100.00;101672.72;4973443;28;20804;-48
2022/07/04 00:06:53;;;;;;;7.47;6.90;;;;;;;15.09;100.00;101669.41;4973218;28;20512;-49
2022/07/04 00:09:21;;;;;;;6.97;6.30;;;;;;;15.07;100.00;101666.09;4973609;28;20434;-45
2022/07/04 00:11:48;;;;;;;7.50;6.83;;;;;;;15.03;100.00;101657.63;4972969;28;20463;-49
2022/07/04 00:14:16;;;;;;;7.07;6.43;;;;;;;15.02;100.00;101665.91;4973221;28;20431;-46
2022/07/04 00:16:44;;;;;;;7.43;6.73;;;;;;;15.00;100.00;101665.25;4973403;28;20489;-48
2022/07/04 00:19:11;;;;;;;9.63;6.80;;;;;;;14.98;100.00;101670.84;4973492;28;20447;-47
2022/07/04 00:21:40;;;;;;;6.77;6.23;;;;;;;14.95;100.00;101672.06;4972643;28;20462;-45
2022/07/04 00:24:08;;;;;;;9.97;6.60;;;;;;;14.93;100.00;101674.13;4973058;28;20434;-47
2022/07/04 00:26:35;;;;;;;8.20;5.70;;;;;;;14.92;100.00;101660.91;4973127;28;20481;-45
2022/07/04 00:29:03;;;;;;;6.93;6.37;;;;;;;14.91;100.00;101664.63;4973159;28;20439;-46
2022/07/04 00:31:31;;;;;;;6.97;6.37;;;;;;;14.90;100.00;101669.16;4971269;28;20430;-52
2022/07/04 00:33:58;;;;;;;6.63;5.53;;;;;;;14.87;100.00;101671.44;4971793;28;20438;-47
2022/07/04 00:36:26;;;;;;;7.07;6.37;;;;;;;14.85;100.00;101671.63;4973093;28;20451;-45
2022/07/04 00:38:55;;;;;;;7.03;6.27;;;;;;;14.84;100.00;101666.47;4973064;28;20431;-44
2022/07/04 00:41:23;;;;;;;7.90;6.00;;;;;;;14.84;100.00;101663.78;4972406;28;20936;-44
2022/07/04 00:44:01;;;;;;;9.63;6.70;;;;;;;14.81;100.00;101664.19;4972738;28;20435;-46
2022/07/04 00:46:40;;;;;;;7.70;6.20;;;;;;;14.77;100.00;101666.44;4972721;28;20455;-47
2022/07/04 00:49:08;;;;;;;7.73;6.40;;;;;;;14.77;100.00;101663.75;4973180;28;20439;-47
2022/07/04 00:51:38;;;;;;;6.70;5.70;;;;;;;14.76;100.00;101661.25;4972314;28;20434;-44
2022/07/04 00:54:08;;;;;;;8.70;6.17;;;;;;;14.73;100.00;101656.28;4972562;28;20431;-47
2022/07/04 00:56:38;;;;;;;8.63;6.87;;;;;;;14.69;100.00;101655.06;4972573;28;20817;-45
2022/07/04 00:59:06;;;;;;;7.03;6.50;;;;;;;14.67;100.00;101652.56;4972530;28;20480;-48
2022/07/04 01:01:34;;;;;;;7.10;5.50;;;;;;;14.66;100.00;101650.94;4972282;28;20423;-45
2022/07/04 01:04:04;;;;;;;6.70;5.23;;;;;;;14.63;100.00;101654.00;4972416;28;20820;-45
2022/07/04 01:06:33;;;;;;;5.70;4.57;;;;;;;14.60;100.00;101651.72;4972543;28;20454;-49
2022/07/04 01:09:01;;;;;;;6.77;6.23;;;;;;;14.58;100.00;101642.19;4972482;28;20435;-48
2022/07/04 01:11:30;;;;;;;6.63;6.03;;;;;;;14.58;100.00;101647.56;4971922;28;20445;-44
2022/07/04 01:13:59;;;;;;;7.47;6.10;;;;;;;14.55;100.00;101646.13;4972355;28;20431;-45
2022/07/04 01:16:27;;;;;;;7.07;6.47;;;;;;;14.52;100.00;101649.19;4972344;28;20473;-51
2022/07/04 01:18:56;;;;;;;6.47;5.97;;;;;;;14.49;100.00;101654.97;4972373;28;20483;-47
2022/07/04 01:21:25;;;;;;;6.77;6.10;;;;;;;14.49;99.70;101651.44;4971925;28;20810;-47
2022/07/04 01:23:53;;;;;;;7.40;6.60;;;;;;;14.46;99.80;101659.91;4972001;28;20431;-50
2022/07/04 01:26:21;;;;;;;8.57;5.47;;;;;;;14.44;99.96;101651.22;4972175;28;20459;-48
2022/07/04 01:28:48;;;;;;;7.90;7.20;;;;;;;14.38;100.00;101653.69;4972401;28;20435;-46
2022/07/04 01:31:16;;;;;;;7.10;5.47;;;;;;;14.35;100.00;101658.63;4972145;28;20446;-51
2022/07/04 01:33:44;;;;;;;6.03;5.10;;;;;;;14.33;100.00;101669.56;4963408;28;20493;-45
2022/07/04 01:36:11;;;;;;;5.10;4.73;;;;;;;14.33;99.99;101666.88;4972131;28;20462;-45
2022/07/04 01:38:40;;;;;;;5.37;4.87;;;;;;;14.34;100.00;101673.88;4972082;28;20478;-45
2022/07/04 01:41:08;;;;;;;5.17;4.67;;;;;;;14.37;99.36;101673.50;4972033;28;20439;-45
2022/07/04 01:43:35;;;;;;;5.57;5.17;;;;;;;14.40;99.61;101670.41;4971334;28;20474;-48
2022/07/04 01:46:03;;;;;;;6.37;4.50;;;;;;;14.46;99.01;101673.31;4972141;28;20455;-47
2022/07/04 01:48:31;;;;;;;5.10;4.20;;;;;;;14.51;98.51;101673.56;4971939;28;20439;-45
2022/07/04 01:50:59;;;;;;;9.57;4.80;;;;;;;14.57;97.80;101672.78;4971860;28;20446;-46
2022/07/04 01:53:26;;;;;;;4.73;4.00;;;;;;;14.63;97.61;101670.13;4971223;28;20478;-45
2022/07/04 01:55:55;;;;;;;4.80;3.60;;;;;;;14.67;97.89;101670.53;4971853;28;20463;-46
2022/07/04 01:58:23;;;;;;;7.30;4.37;;;;;;;14.71;97.81;101667.25;4971835;28;20478;-45
2022/07/04 02:03:37;;;;;;;4.40;3.90;;;;;;;14.73;98.88;101677.78;5032482;28;20460;-45
2022/07/04 02:06:05;;;;;;;4.50;3.90;;;;;;;14.74;99.00;101671.38;5033508;28;20428;-46
2022/07/04 02:11:15;;;;;;;5.70;4.33;;;;;;;14.68;100.00;101672.19;5034118;28;20461;-48
2022/07/04 02:13:42;;;;;;;17.07;6.07;;;;;;;14.66;100.00;101674.25;5033299;28;20472;-47
2022/07/04 02:16:09;;;;;;;5.07;4.77;;;;;;;14.60;100.00;101669.69;5035704;28;20527;-47
2022/07/04 02:18:37;;;;;;;6.33;5.73;;;;;;;14.54;100.00;101670.47;5044569;28;20471;-46
2022/07/04 02:21:05;;;;;;;8.97;5.20;;;;;;;14.48;100.00;101666.75;5052988;28;20511;-52
2022/07/04 02:23:32;;;;;;;5.77;4.37;;;;;;;14.44;100.00;101661.97;5052160;28;20467;-47
2022/07/04 02:26:00;;;;;;;5.50;5.10;;;;;;;14.40;100.00;101664.22;5053125;28;20431;-48
2022/07/04 02:28:29;;;;;;;5.03;4.50;;;;;;;14.37;100.00;101670.81;5052737;28;20432;-47
2022/07/04 02:30:57;;;;;;;4.97;4.53;;;;;;;14.35;100.00;101669.34;5052779;28;20500;-47
2022/07/04 02:33:24;;;;;;;5.77;5.27;;;;;;;14.32;100.00;101670.59;5040554;28;20526;-47
2022/07/04 02:35:52;;;;;;;12.53;5.60;;;;;;;14.29;100.00;101670.94;5050983;28;20431;-46
2022/07/04 02:38:20;;;;;;;5.60;5.17;;;;;;;14.24;100.00;101678.78;5052662;28;20473;-48
2022/07/04 02:40:47;;;;;;;5.80;5.40;;;;;;;14.22;100.00;101675.44;5052632;28;20432;-47
2022/07/04 02:43:15;;;;;;;8.87;4.70;;;;;;;14.21;100.00;101681.00;5051651;28;20459;-51
2022/07/04 02:45:44;;;;;;;6.93;4.87;;;;;;;14.18;100.00;101673.34;5052442;28;20431;-46
2022/07/04 02:48:11;;;;;;;6.03;5.27;;;;;;;14.17;100.00;101677.06;5052546;28;20431;-50
2022/07/04 02:50:39;;;;;;;7.40;4.90;;;;;;;14.17;100.00;101682.44;5052396;28;20441;-48
2022/07/04 02:53:07;;;;;;;5.90;5.33;;;;;;;14.16;100.00;101680.75;5051694;28;20465;-49
2022/07/04 02:55:34;;;;;;;5.10;4.47;;;;;;;14.19;100.00;101686.56;5052284;28;20430;-45
2022/07/04 02:58:02;;;;;;;5.27;4.83;;;;;;;14.23;100.00;101684.31;5052165;28;20437;-52
2022/07/04 03:00:30;;;;;;;7.50;5.97;;;;;;;14.32;100.00;101688.50;5052371;28;20434;-50
2022/07/04 03:02:59;;;;;;;5.70;5.20;;;;;;;14.44;100.00;101686.94;5051414;28;20459;-53
2022/07/04 03:05:28;;;;;;;7.90;6.23;;;;;;;14.57;99.76;101691.56;5052107;28;20445;-46
2022/07/04 03:07:56;;;;;;;8.83;5.37;;;;;;;14.73;99.62;101696.56;5052064;28;20441;-50
2022/07/04 03:10:24;;;;;;;5.50;5.00;;;;;;;14.86;99.70;101704.69;5051940;28;20423;-49
2022/07/04 03:12:51;;;;;;;7.30;6.30;;;;;;;14.94;100.00;101696.44;5051092;28;21013;-50
2022/07/04 03:15:19;;;;;;;7.87;5.67;;;;;;;15.06;100.00;101696.69;5052167;28;20435;-47
2022/07/04 03:17:47;;;;;;;14.47;6.90;;;;;;;15.17;100.00;101699.59;5052014;28;20442;-51
2022/07/04 03:20:16;;;;;;;5.93;5.33;;;;;;;15.38;100.00;101694.06;5051893;28;20475;-49
2022/07/04 03:22:43;;;;;;;8.80;5.00;;;;;;;15.54;100.00;101687.50;5051119;28;20467;-52
2022/07/04 03:25:11;;;;;;;5.63;5.23;;;;;;;15.67;100.00;101690.19;5051815;28;20912;-47
2022/07/04 03:27:39;;;;;;;6.20;5.47;;;;;;;15.79;100.00;101695.78;5051413;28;20439;-52
2022/07/04 03:30:07;;;;;;;8.60;6.03;;;;;;;16.23;100.00;101709.38;5051584;28;20430;-48
2022/07/04 03:32:34;;;;;;;4.43;3.90;;;;;;;17.13;95.43;101693.09;5037907;28;20459;-51
2022/07/04 03:35:02;;;;;;;8.47;3.93;;;;;;;17.72;100.00;101691.88;5035649;28;20796;-47
2022/07/04 03:37:32;;;;;;;3.97;3.70;;;;;;;17.56;100.00;101697.81;5043432;28;20435;-50
2022/07/04 03:40:00;;;;;;;4.30;3.90;;;;;;;17.35;99.43;101698.94;5051708;28;20489;-47
2022/07/04 03:42:27;;;;;;;4.07;3.60;;;;;;;17.17;98.95;101697.00;5050888;28;20471;-54
2022/07/04 03:44:55;;;;;;;3.83;3.50;;;;;;;16.97;97.35;101700.84;5051896;28;20778;-48
2022/07/04 03:47:22;;;;;;;5.40;4.90;;;;;;;16.85;98.46;101699.88;5051586;28;20488;-51
2022/07/04 03:49:50;;;;;;;4.53;4.13;;;;;;;16.74;98.60;101693.28;5051366;28;20439;-53
2022/07/04 03:52:18;;;;;;;5.37;4.07;;;;;;;16.69;99.16;101695.81;5050977;28;20471;-48
2022/07/04 03:54:47;;;;;;;5.20;3.63;;;;;;;16.58;98.71;101705.38;5051908;28;20428;-48
2022/07/04 03:57:15;;;;;;;4.23;3.93;;;;;;;16.64;99.69;101705.53;5051554;28;20799;-52
2022/07/04 03:59:42;;;;;;;4.03;3.17;;;;;;;16.72;99.59;101702.63;5051423;28;20475;-50
2022/07/04 04:02:10;;;;;;;5.70;3.40;;;;;;;16.74;98.49;101703.25;5050565;28;20466;-47
2022/07/04 04:07:23;;;;;;;3.73;3.40;;;;;;;16.83;97.29;101701.97;5051437;28;20431;-49
2022/07/04 04:09:52;;;;;;;8.30;4.00;;;;;;;16.75;97.08;101707.59;5051466;28;20800;-49
2022/07/04 04:12:21;;;;;;;3.80;3.50;;;;;;;16.68;97.27;101699.53;5050472;28;20477;-53
2022/07/04 04:14:48;;;;;;;5.40;3.43;;;;;;;16.69;98.12;101708.44;5051139;28;20435;-47
2022/07/04 04:17:17;;;;;;;3.50;3.03;;;;;;;16.77;98.96;101700.13;5051455;28;20431;-49
2022/07/04 04:19:44;;;;;;;3.30;3.00;;;;;;;16.84;99.22;101695.53;5051311;28;20844;-46
2022/07/04 04:22:12;;;;;;;7.53;3.40;;;;;;;16.92;99.16;101700.69;5050650;28;20868;-51
2022/07/04 04:24:40;;;;;;;3.30;3.00;;;;;;;16.86;98.45;101699.66;5051254;28;20797;-49
2022/07/04 04:27:09;;;;;;;3.27;3.03;;;;;;;16.82;97.48;101709.22;5051200;28;20530;-49
2022/07/04 04:29:37;;;;;;;3.73;2.63;;;;;;;17.02;99.06;101714.53;5051125;28;20431;-49
2022/07/04 04:32:05;;;;;;;6.90;3.57;;;;;;;17.78;100.00;101704.47;5045008;28;20466;-53
2022/07/04 04:34:33;;;;;;;2.90;2.60;;;;;;;18.68;100.00;101711.88;5042862;28;20445;-48
2022/07/04 04:37:01;;;;;;;4.40;3.20;;;;;;;20.14;96.33;101711.34;5051155;28;20457;-50
2022/07/04 04:39:29;;;;;;;2.50;2.40;;;;;;;20.29;76.52;101709.84;5052072;28;20505;-49
2022/07/04 04:41:56;;;;;;;4.07;2.83;;;;;;;19.88;77.31;101708.06;5054184;28;20474;-55
2022/07/04 04:44:25;;;;;;;5.27;3.00;;;;;;;19.58;80.19;101712.72;5055123;28;20430;-48
2022/07/04 04:46:53;;;;;;;3.63;2.90;;;;;;;20.27;83.00;101713.88;5054741;28;20438;-51
2022/07/04 04:49:20;;;;;;;6.93;3.03;;;;;;;20.87;80.52;101714.31;5054735;28;20427;-48
2022/07/04 04:51:48;;;;;;;2.50;2.30;;;;;;;22.28;80.32;101711.34;5054674;28;20529;-53
2022/07/04 04:54:16;;;;;;;4.73;2.83;;;;;;;23.25;76.13;101713.38;5054658;28;20427;-49
2022/07/04 04:56:44;;;;;;;6.63;3.30;;;;;;;24.06;64.24;101710.28;5055064;28;20442;-47
2022/07/04 04:59:11;;;;;;;6.10;3.40;;;;;;;24.95;65.36;101715.66;5054553;28;20474;-48
2022/07/04 05:01:40;;;;;;;3.73;2.57;;;;;;;25.50;62.68;101714.16;5053666;28;20935;-50
2022/07/04 05:04:09;;;;;;;3.50;3.13;;;;;;;24.85;59.34;101714.81;5054300;28;20438;-48
2022/07/04 05:06:37;;;;;;;6.47;3.70;;;;;;;25.10;58.07;101715.69;5054439;28;20473;-53
2022/07/04 05:09:05;;;;;;;3.80;3.40;;;;;;;26.20;59.86;101707.81;5054363;28;20441;-51
2022/07/04 05:11:32;;;;;;;5.60;3.13;;;;;;;26.82;56.59;101710.09;5053955;28;20822;-51
2022/07/04 05:14:01;;;;;;;6.10;3.33;;;;;;;27.28;55.67;101707.91;5042063;28;20466;-48
2022/07/04 05:16:29;;;;;;;5.73;3.60;;;;;;;27.45;56.04;101714.66;5032585;28;20428;-49
2022/07/04 05:18:58;;;;;;;4.37;3.00;;;;;;;28.26;53.95;101718.59;5032790;28;20437;-46
2022/07/04 05:21:28;;;;;;;2.70;2.60;;;;;;;28.75;50.62;101721.06;5036578;28;20477;-52
2022/07/04 05:23:55;;;;;;;4.07;3.07;;;;;;;29.11;49.15;101716.72;5053034;28;20427;-47
2022/07/04 05:26:23;;;;;;;3.73;3.13;;;;;;;29.62;49.18;101717.59;5050599;28;20223;-49
2022/07/04 05:28:51;;;;;;;4.53;2.67;;;;;;;30.09;46.54;101713.75;5032200;28;20462;-50
2022/07/04 05:31:18;;;;;;;5.37;2.70;;;;;;;30.55;42.86;101721.97;5040589;28;20653;-49
2022/07/04 05:33:46;;;;;;;4.20;2.57;;;;;;;30.86;43.44;101716.59;5041485;28;20209;-48
2022/07/04 05:36:15;;;;;;;2.80;2.60;;;;;;;31.26;43.43;101717.66;5050638;28;20196;-48
2022/07/04 05:38:43;;;;;;;4.07;2.60;;;;;;;31.47;41.40;101720.72;5033578;28;20201;-49
2022/07/04 05:41:10;;;;;;;3.23;2.43;;;;;;;31.63;42.25;101722.81;5033737;28;20220;-49
2022/07/04 05:43:38;;;;;;;3.30;2.40;;;;;;;32.01;38.80;101723.22;5033056;28;20713;-46
2022/07/04 05:46:06;;;;;;;3.75;2.75;;;;;;;32.04;41.33;101724.56;5033768;28;20197;-52
2022/07/04 05:48:33;;;;;;;2.70;2.40;;;;;;;32.24;40.39;101722.06;5033543;28;20551;-48
2022/07/04 05:51:01;;;;;;;3.25;2.65;;;;;;;32.28;34.24;101725.81;5032995;28;20220;-46
2022/07/04 05:53:30;;;;;;;3.05;2.40;;;;;;;32.27;38.68;101718.66;5032943;28;20604;-47
2022/07/04 05:55:58;;;;;;;4.07;2.83;;;;;;;31.82;37.71;101716.28;5032737;28;20199;-46
2022/07/04 05:58:25;;;;;;;2.85;2.65;;;;;;;31.98;36.44;101715.56;5033297;28;20201;-45
2022/07/04 06:00:53;;;;;;;3.53;2.55;;;;;;;32.41;37.78;101712.22;5033262;28;20313;-49
2022/07/04 06:03:21;;;;;;;2.97;2.78;;;;;;;31.83;38.74;101721.50;5032563;28;20236;-50
2022/07/04 06:05:51;;;;;;;6.13;2.70;;;;;;;31.17;37.64;101714.81;5033662;28;20193;-52
2022/07/04 06:08:19;;;;;;;3.67;2.90;;;;;;;31.24;37.82;101717.94;5033361;28;20205;-53
2022/07/04 06:10:49;;;;;;;3.78;2.85;;;;;;;31.44;35.57;101722.19;5032843;28;20209;-51
2022/07/04 06:13:16;;;;;;;7.80;3.20;;;;;;;31.90;38.34;101727.34;5032512;28;20229;-49
2022/07/04 06:15:44;;;;;;;2.88;2.55;;;;;;;32.42;37.35;101731.22;5033271;28;20208;-49
2022/07/04 06:18:12;;;;;;;6.85;2.85;;;;;;;32.44;34.08;101723.41;5033222;28;20300;-50
2022/07/04 06:20:40;;;;;;;4.57;2.90;;;;;;;32.30;36.31;101719.97;5032983;28;20233;-52
2022/07/04 06:23:08;;;;;;;5.75;2.80;;;;;;;32.52;37.39;101736.47;5032360;28;20621;-51
2022/07/04 06:25:36;;;;;;;5.65;2.75;;;;;;;32.87;37.13;101729.09;5032330;28;20701;-46
2022/07/04 06:28:05;;;;;;;3.10;2.65;;;;;;;32.92;35.71;101719.81;5032751;28;20197;-49
2022/07/04 06:30:33;;;;;;;2.72;2.63;;;;;;;32.97;36.56;101725.22;5033118;28;20200;-48
2022/07/04 06:33:01;;;;;;;4.30;2.58;;;;;;;33.19;33.43;101728.66;5037282;28;20237;-49
2022/07/04 06:35:51;;;;;;;3.40;2.65;;;;;;;33.11;34.44;101732.25;5047560;28;20195;-52
2022/07/04 06:38:21;;;;;;;3.92;2.88;;;;;;;32.95;33.96;101730.22;5052723;28;20192;-50
2022/07/04 06:40:50;;;;;;;4.68;2.80;;;;;;;33.11;35.00;101728.66;5051842;28;20222;-46
2022/07/04 06:43:19;;;;;;;3.22;2.92;;;;;;;32.07;35.81;101730.25;5052022;28;20251;-46
2022/07/04 06:45:47;;;;;;;3.80;2.67;;;;;;;31.34;35.03;101719.66;5052630;28;20196;-50
2022/07/04 06:48:15;;;;;;;2.72;2.53;;;;;;;30.66;36.64;101719.78;5052450;28;20196;-52
2022/07/04 06:50:44;;;;;;;3.87;3.13;;;;;;;29.71;38.15;101722.38;5052345;28;20224;-51
2022/07/04 06:53:12;;;;;;;3.53;3.07;;;;;;;28.99;39.70;101730.88;5051707;28;20228;-54
2022/07/04 06:55:41;;;;;;;5.80;3.00;;;;;;;29.52;39.28;101730.66;5052211;28;20196;-47
2022/07/04 06:58:10;;;;;;;3.13;2.80;;;;;;;28.42;40.51;101728.28;5052408;28;20212;-50
2022/07/04 07:00:41;;;;;;;4.33;3.17;;;;;;;27.34;41.45;101729.50;5052020;28;20216;-53
2022/07/04 07:03:09;;;;;;;3.33;3.07;;;;;;;26.77;43.70;101726.50;5051561;28;20228;-51
2022/07/04 07:05:37;;;;;;;3.57;3.20;;;;;;;27.44;42.92;101715.78;5052080;28;20456;-51
2022/07/04 07:08:26;;;;;;;5.53;3.13;;;;;;;28.11;41.70;101714.06;5051811;28;20442;-47
2022/07/04 07:10:54;;;;;;;4.30;3.20;;;;;;;28.15;40.60;101715.16;5051855;28;20942;-52
2022/07/04 07:13:21;;;;;;;7.63;3.43;;;;;;;28.58;41.58;101723.44;5051222;28;20473;-49
2022/07/04 07:15:50;;;;;;;3.07;2.87;;;;;;;28.66;39.19;101712.66;5051885;28;20196;-47
2022/07/04 07:18:18;;;;;;;6.63;3.20;;;;;;;28.19;41.15;101721.69;5051843;28;20295;-51
2022/07/04 07:20:45;;;;;;;4.70;3.20;;;;;;;26.88;42.52;101722.66;5051969;28;20216;-45
2022/07/04 07:23:13;;;;;;;2.80;2.60;;;;;;;27.34;42.24;101721.28;5050538;28;20220;-49
2022/07/04 07:25:41;;;;;;;2.97;2.73;;;;;;;27.93;42.23;101723.00;5052136;28;20505;-51
2022/07/04 07:28:08;;;;;;;3.10;2.90;;;;;;;28.81;39.65;101717.97;5052006;28;20431;-53
2022/07/04 07:30:36;;;;;;;2.93;2.57;;;;;;;28.96;39.11;101722.41;5051272;28;20188;-53
2022/07/04 07:33:05;;;;;;;3.40;2.60;;;;;;;29.04;39.75;101719.00;5040927;28;20216;-53
2022/07/04 07:35:33;;;;;;;2.80;2.60;;;;;;;29.70;38.15;101724.31;5047237;28;20535;-51
2022/07/04 07:38:00;;;;;;;3.23;2.93;;;;;;;29.69;37.65;101713.63;5051597;28;20269;-46
2022/07/04 07:40:28;;;;;;;3.10;2.60;;;;;;;29.32;37.75;101715.31;5035123;28;20566;-48
2022/07/04 07:42:56;;;;;;;3.30;3.00;;;;;;;28.59;39.11;101712.16;5030758;28;20244;-47
2022/07/04 07:45:24;;;;;;;2.70;2.50;;;;;;;28.52;39.35;101730.94;5025165;28;20212;-48
2022/07/04 07:47:52;;;;;;;2.87;2.67;;;;;;;28.14;41.50;101723.66;5028785;28;20192;-51
2022/07/04 07:50:21;;;;;;;2.57;2.37;;;;;;;27.61;40.30;101736.44;5038732;28;20243;-53
2022/07/04 07:52:49;;;;;;;2.93;2.83;;;;;;;26.83;43.06;101728.16;5029842;28;20467;-53
2022/07/04 07:55:16;;;;;;;3.07;2.97;;;;;;;27.26;42.86;101723.81;5030201;28;20430;-45
2022/07/04 07:57:44;;;;;;;3.40;3.20;;;;;;;27.55;42.82;101723.88;5029739;28;20443;-48
2022/07/04 08:00:16;;;;;;;3.73;3.00;;;;;;;27.46;41.98;101727.25;5049817;28;20430;-47
2022/07/04 08:05:50;;;;;;;3.50;3.20;;;;;;;27.58;41.89;101729.63;5050615;28;20565;-45
2022/07/04 08:08:18;;;;;;;2.93;2.73;;;;;;;27.47;41.44;101739.03;5041775;28;20436;-52
2022/07/04 08:10:45;;;;;;;4.00;2.70;;;;;;;27.13;41.62;101732.63;5044613;28;20441;-49
2022/07/04 08:13:13;;;;;;;3.30;3.00;;;;;;;26.93;41.62;101728.94;5049465;28;20240;-49
2022/07/04 08:15:40;;;;;;;7.53;2.87;;;;;;;27.44;42.03;101729.47;5075585;22;20847;-51
2022/07/04 08:18:08;;;;;;;2.77;2.60;;;;;;;26.91;42.13;101724.84;5038573;28;20939;-45
2022/07/04 08:20:36;;;;;;;2.53;2.33;;;;;;;26.71;42.08;101720.22;5033841;28;20431;-48
2022/07/04 08:23:25;;;;;;;3.63;3.10;;;;;;;26.66;42.32;101720.28;5033415;28;20459;-47
2022/07/04 08:25:52;;;;;;;2.70;2.50;;;;;;;26.68;42.21;101719.97;5034700;28;20470;-46
2022/07/04 08:28:20;;;;;;;2.93;2.70;;;;;;;26.46;42.00;101711.31;5041774;28;20517;-52
2022/07/04 08:30:47;;;;;;;3.33;3.13;;;;;;;26.10;42.37;101718.78;5053857;28;20435;-46
2022/07/04 08:33:15;;;;;;;3.23;3.03;;;;;;;25.86;43.66;101713.84;5045538;28;20464;-45
2022/07/04 08:35:43;;;;;;;3.13;2.93;;;;;;;25.68;44.33;101708.16;5034109;28;20452;-46
2022/07/04 08:38:10;;;;;;;3.10;2.90;;;;;;;25.64;43.33;101710.59;5033673;28;20467;-45
2022/07/04 08:40:41;;;;;;;3.83;2.93;;;;;;;25.44;44.22;101710.56;5037723;28;20970;-50
2022/07/04 08:43:13;;;;;;;6.30;3.10;;;;;;;25.51;43.90;101713.88;5052562;28;21021;-46
2022/07/04 08:45:42;;;;;;;2.90;2.80;;;;;;;25.34;43.78;101710.56;5039502;28;20486;-46
2022/07/04 08:48:31;;;;;;;3.00;2.70;;;;;;;25.11;43.95;101716.53;5032763;28;20440;-44
2022/07/04 08:51:09;;;;;;;3.00;2.80;;;;;;;24.71;44.70;101722.63;5034414;28;20432;-45
2022/07/04 08:53:39;;;;;;;3.70;3.10;;;;;;;24.70;45.08;101724.53;5033260;28;20542;-47
2022/07/04 08:58:57;;;;;;;3.37;3.17;;;;;;;24.42;46.76;101729.59;5033769;28;20432;-47
2022/07/04 09:01:27;;;;;;;4.70;3.40;;;;;;;24.04;46.41;101741.59;5032125;28;20478;-47
2022/07/04 09:03:56;;;;;;;3.07;2.97;;;;;;;24.24;46.02;101739.03;5032411;28;20428;-47
2022/07/04 09:06:26;;;;;;;4.10;3.20;;;;;;;24.56;46.79;101733.47;5033224;28;20451;-44
2022/07/04 09:08:54;;;;;;;3.10;2.90;;;;;;;24.55;46.27;101729.13;5033769;28;20424;-45
2022/07/04 09:11:23;;;;;;;4.57;2.70;;;;;;;24.61;47.17;101736.25;5042694;28;20440;-45
2022/07/04 09:13:51;;;;;;;3.10;2.90;;;;;;;24.19;47.47;101737.06;5053060;28;20430;-46
2022/07/04 09:16:18;;;;;;;5.27;3.17;;;;;;;24.38;47.02;101734.75;5052972;28;20458;-50
2022/07/04 09:18:46;;;;;;;3.60;3.30;;;;;;;24.51;48.04;101737.00;5036175;28;20443;-46
2022/07/04 09:21:13;;;;;;;2.93;2.80;;;;;;;24.90;46.43;101739.38;5032017;28;20432;-44
2022/07/04 09:23:43;;;;;;;3.43;2.87;;;;;;;24.97;44.74;101734.50;5031831;28;20460;-46
2022/07/04 09:26:14;;;;;;;2.90;2.80;;;;;;;25.12;45.38;101734.53;5032047;28;20455;-45
2022/07/04 09:28:44;;;;;;;3.07;2.80;;;;;;;25.39;46.24;101745.25;5042396;28;20438;-46
2022/07/04 09:31:20;;;;;;;3.43;3.00;;;;;;;25.19;46.36;101737.81;5033977;28;20428;-48
2022/07/04 09:33:50;;;;;;;3.27;3.07;;;;;;;24.93;46.14;101736.13;5039510;28;20439;-45
2022/07/04 09:36:19;;;;;;;4.23;3.03;;;;;;;25.12;46.21;101729.88;5032462;28;20462;-47
2022/07/04 09:39:05;;;;;;;7.30;3.30;;;;;;;25.20;45.77;101721.19;5048780;28;20431;-45
2022/07/04 09:41:51;;;;;;;9.87;2.80;;;;;;;25.52;46.73;101717.44;5051145;28;20433;-47
2022/07/04 09:44:20;;;;;;;3.07;2.70;;;;;;;25.14;45.41;101713.25;5050581;28;20430;-45
2022/07/04 09:46:48;;;;;;;4.90;2.90;;;;;;;24.79;46.66;101724.84;5032296;28;20461;-49
2022/07/04 09:49:16;;;;;;;3.27;2.80;;;;;;;24.60;46.92;101721.78;5047316;28;20431;-46
2022/07/04 09:51:45;;;;;;;3.90;3.17;;;;;;;24.45;47.30;101727.16;5050998;28;20538;-46
2022/07/04 09:54:15;;;;;;;3.60;2.50;;;;;;;24.45;46.32;101718.97;5051356;28;20521;-45
2022/07/04 09:56:45;;;;;;;2.80;2.60;;;;;;;24.69;46.58;101731.09;5051869;28;20458;-45
2022/07/04 09:59:13;;;;;;;3.07;2.97;;;;;;;24.71;46.64;101731.63;5049729;28;20431;-45
2022/07/04 10:01:42;;;;;;;2.90;2.57;;;;;;;25.37;46.01;101731.03;5030567;28;20467;-44
2022/07/04 10:04:11;;;;;;;3.23;3.00;;;;;;;25.59;45.19;101732.47;5031286;28;20432;-46
2022/07/04 10:06:40;;;;;;;3.47;3.13;;;;;;;25.85;44.79;101723.16;5031564;28;20542;-44
2022/07/04 10:09:10;;;;;;;3.00;2.80;;;;;;;26.21;44.30;101728.63;5030713;28;20450;-46
2022/07/04 10:11:39;;;;;;;2.90;2.70;;;;;;;26.36;44.84;101721.19;5030163;28;20430;-44
2022/07/04 10:14:08;;;;;;;2.40;2.20;;;;;;;26.16;44.21;101725.91;5030929;28;20427;-50
2022/07/04 10:16:36;;;;;;;4.53;3.00;;;;;;;25.76;43.93;101724.81;5030877;28;20459;-47
2022/07/04 10:19:06;;;;;;;2.90;2.80;;;;;;;25.12;44.95;101724.44;5030641;28;20431;-47
2022/07/04 10:21:34;;;;;;;4.57;3.33;;;;;;;24.67;46.63;101735.19;5030683;28;20974;-45
2022/07/04 10:24:04;;;;;;;3.37;2.97;;;;;;;24.34;47.98;101728.19;5030915;28;20879;-47
2022/07/04 10:26:32;;;;;;;2.90;2.70;;;;;;;24.16;48.65;101732.16;5050726;28;20454;-48
2022/07/04 10:29:00;;;;;;;3.27;2.97;;;;;;;24.14;49.12;101734.31;5050989;28;20423;-45
2022/07/04 10:31:31;;;;;;;2.63;2.40;;;;;;;24.28;49.11;101734.72;5048872;28;20431;-46
2022/07/04 10:34:00;;;;;;;2.77;2.60;;;;;;;24.40;49.54;101729.03;5039073;28;20439;-48
2022/07/04 10:36:30;;;;;;;3.00;2.80;;;;;;;24.90;48.90;101726.56;5031272;28;20474;-46
2022/07/04 10:38:59;;;;;;;3.10;2.90;;;;;;;24.80;48.71;101726.50;5030517;28;20439;-46
2022/07/04 10:41:29;;;;;;;3.93;2.83;;;;;;;25.12;47.23;101720.88;5030079;28;20956;-47
2022/07/04 10:44:01;;;;;;;3.10;2.80;;;;;;;25.65;47.38;101717.72;5031303;28;20476;-52
2022/07/04 10:46:50;;;;;;;3.63;2.57;;;;;;;25.73;46.15;101719.91;5031637;28;20460;-44
2022/07/04 10:49:24;;;;;;;3.00;2.80;;;;;;;25.42;46.77;101712.75;5031407;28;20439;-45
2022/07/04 10:51:56;;;;;;;3.57;2.80;;;;;;;24.97;47.81;101710.75;5030256;28;20459;-45
2022/07/04 10:54:31;;;;;;;2.57;2.43;;;;;;;24.78;48.59;101715.84;5030937;28;20462;-50
2022/07/04 10:57:10;;;;;;;2.97;2.77;;;;;;;24.33;49.89;101712.91;5032369;28;20459;-44
2022/07/04 10:59:39;;;;;;;5.03;3.07;;;;;;;23.95;51.50;101714.03;5050922;28;20426;-45
2022/07/04 11:02:25;;;;;;;3.50;3.30;;;;;;;23.58;52.55;101710.44;5050090;28;20825;-47
2022/07/04 11:05:00;;;;;;;3.40;3.10;;;;;;;23.31;52.19;101712.34;5051199;28;20893;-45
2022/07/04 11:08:05;;;;;;;4.33;3.13;;;;;;;23.00;53.05;101708.47;5049878;28;20463;-45
2022/07/04 11:10:34;;;;;;;4.67;3.30;;;;;;;22.87;53.47;101706.16;5018234;28;20438;-49
2022/07/04 11:13:18;;;;;;;5.30;3.73;;;;;;;22.79;55.85;101709.34;5049633;28;20467;-47
2022/07/04 11:16:05;;;;;;;3.90;3.60;;;;;;;22.54;54.79;101707.91;5048381;28;20472;-49
2022/07/04 11:18:42;;;;;;;4.37;3.03;;;;;;;22.58;54.16;101710.94;5035238;28;20518;-49
2022/07/04 11:21:20;;;;;;;4.03;3.10;;;;;;;22.76;51.95;101702.47;5029881;28;20437;-45
2022/07/04 11:23:53;;;;;;;4.27;2.90;;;;;;;22.86;51.98;101707.22;5029432;28;20482;-49
2022/07/04 11:26:22;;;;;;;3.27;3.00;;;;;;;22.75;52.85;101705.47;5029668;28;20447;-47
2022/07/04 11:28:50;;;;;;;3.73;3.27;;;;;;;22.42;54.37;101707.22;5029047;28;20435;-44
2022/07/04 11:31:18;;;;;;;3.20;3.00;;;;;;;22.69;54.36;101698.34;5029313;28;20435;-45
2022/07/04 11:33:47;;;;;;;3.27;3.00;;;;;;;22.48;53.87;101699.94;5036987;28;21132;-44
2022/07/04 11:36:17;;;;;;;4.70;2.70;;;;;;;22.20;53.55;101698.19;5029694;28;20460;-47
2022/07/04 11:38:48;;;;;;;4.00;2.97;;;;;;;22.11;54.53;101704.31;5040744;28;20518;-48
2022/07/04 11:46:50;;;;;;;5.17;3.50;;;;;;;23.10;54.95;101700.44;5049160;28;20454;-44
2022/07/04 11:49:17;;;;;;;3.47;3.27;;;;;;;23.44;51.54;101695.63;5048926;28;20442;-45
2022/07/04 11:51:49;;;;;;;3.77;3.43;;;;;;;23.13;53.27;101703.47;5048830;28;20477;-47
2022/07/04 11:54:18;;;;;;;3.77;3.20;;;;;;;23.19;53.02;101707.06;5049858;28;20427;-48